createdAt,value
2019-04-22T00:00:57.308Z,14.28
2019-04-22T00:01:56.892Z,14.23
2019-04-22T00:02:58.294Z,14.20
2019-04-22T00:04:01.363Z,14.18
2019-04-22T00:05:04.792Z,14.20
2019-04-22T00:06:14.926Z,14.23
2019-04-22T00:07:17.417Z,14.13
2019-04-22T00:08:19.201Z,14.16
2019-04-22T00:09:19.232Z,14.04
2019-04-22T00:10:21.122Z,14.07
2019-04-22T00:11:25.895Z,14.00
2019-04-22T00:12:19.565Z,14.00
2019-04-22T00:13:26.355Z,14.03
2019-04-22T00:14:13.381Z,13.95
2019-04-22T00:15:18.117Z,14.03
2019-04-22T00:16:18.673Z,13.86
2019-04-22T00:17:23.465Z,13.97
2019-04-22T00:18:26.663Z,13.91
2019-04-22T00:19:20.886Z,13.93
2019-04-22T00:20:18.824Z,13.97
2019-04-22T00:21:19.507Z,13.87
2019-04-22T00:22:22.187Z,13.87
2019-04-22T00:23:20.135Z,13.93
2019-04-22T00:24:17.364Z,13.86
2019-04-22T00:25:24.504Z,13.89
2019-04-22T00:26:24.216Z,13.86
2019-04-22T00:27:20.215Z,13.79
2019-04-22T00:29:42.449Z,13.73
2019-04-22T00:30:22.487Z,13.78
2019-04-22T00:31:19.455Z,13.82
2019-04-22T00:32:18.217Z,13.71
2019-04-22T00:33:15.880Z,13.71
2019-04-22T00:34:16.397Z,13.71
2019-04-22T00:35:13.322Z,13.78
2019-04-22T00:36:16.660Z,13.71
2019-04-22T00:37:16.780Z,13.78
2019-04-22T00:39:22.083Z,13.70
2019-04-22T00:40:23.829Z,13.75
2019-04-22T00:41:25.600Z,13.60
2019-04-22T00:42:14.951Z,13.62
2019-04-22T00:43:21.276Z,13.62
2019-04-22T00:44:21.881Z,13.57
2019-04-22T00:45:19.338Z,13.58
2019-04-22T00:46:17.956Z,13.52
2019-04-22T00:47:23.225Z,13.57
2019-04-22T00:48:21.019Z,13.55
2019-04-22T00:50:00.417Z,13.55
2019-04-22T00:50:18.899Z,13.55
2019-04-22T00:51:36.555Z,13.57
2019-04-22T00:52:18.353Z,13.52
2019-04-22T00:53:20.125Z,13.42
2019-04-22T00:54:15.735Z,13.40
2019-04-22T00:55:23.034Z,13.45
2019-04-22T00:56:20.278Z,13.37
2019-04-22T00:57:15.439Z,13.39
2019-04-22T00:58:15.846Z,13.36
2019-04-22T00:59:22.137Z,13.33
2019-04-22T01:00:18.093Z,13.40
2019-04-22T01:01:19.091Z,13.37
2019-04-22T01:02:23.018Z,13.33
2019-04-22T01:03:21.497Z,13.39
2019-04-22T01:04:21.476Z,13.45
2019-04-22T01:05:24.534Z,13.33
2019-04-22T01:06:21.554Z,13.30
2019-04-22T01:07:17.675Z,13.39
2019-04-22T01:08:28.263Z,13.37
2019-04-22T01:09:17.122Z,13.33
2019-04-22T01:10:20.283Z,13.31
2019-04-22T01:11:25.118Z,13.31
2019-04-22T01:12:25.009Z,13.27
2019-04-22T01:13:23.155Z,13.24
2019-04-22T01:14:12.553Z,13.27
2019-04-22T01:15:14.801Z,13.26
2019-04-22T01:16:20.333Z,13.26
2019-04-22T01:17:12.127Z,13.19
2019-04-22T01:18:09.805Z,13.20
2019-04-22T01:20:29.388Z,13.24
2019-04-22T01:22:17.348Z,13.13
2019-04-22T01:23:10.957Z,13.19
2019-04-22T01:24:08.739Z,13.03
2019-04-22T01:25:14.710Z,13.01
2019-04-22T01:26:09.871Z,13.02
2019-04-22T01:27:08.133Z,13.01
2019-04-22T01:28:06.320Z,13.02
2019-04-22T01:29:00.886Z,12.88
2019-04-22T01:30:03.710Z,12.88
2019-04-22T01:31:00.093Z,12.93
2019-04-22T01:31:51.346Z,12.84
2019-04-22T01:32:53.886Z,12.84
2019-04-22T01:34:08.189Z,12.93
2019-04-22T01:35:03.362Z,12.80
2019-04-22T01:36:08.159Z,12.75
2019-04-22T01:37:07.704Z,12.73
2019-04-22T01:38:11.538Z,12.69
2019-04-22T01:39:15.307Z,12.68
2019-04-22T01:40:21.468Z,12.72
2019-04-22T01:41:21.221Z,12.62
2019-04-22T01:42:12.190Z,12.61
2019-04-22T01:43:18.540Z,12.62
2019-04-22T01:44:27.245Z,12.62
2019-04-22T01:45:19.340Z,12.61
2019-04-22T01:46:21.362Z,12.53
2019-04-22T01:47:22.702Z,12.45
2019-04-22T01:48:17.965Z,12.40
2019-04-22T01:49:17.358Z,12.44
2019-04-22T01:50:16.763Z,12.30
2019-04-22T01:51:07.895Z,12.29
2019-04-22T01:52:15.441Z,12.30
2019-04-22T01:53:21.361Z,12.23
2019-04-22T01:54:26.961Z,12.18
2019-04-22T01:55:18.999Z,12.20
2019-04-22T01:56:13.610Z,12.17
2019-04-22T01:57:14.169Z,12.14
2019-04-22T01:58:10.798Z,12.18
2019-04-22T02:00:40.216Z,11.97
2019-04-22T02:01:48.448Z,12.00
2019-04-22T02:02:42.266Z,11.97
2019-04-22T02:03:39.841Z,11.99
2019-04-22T02:05:35.845Z,11.86
2019-04-22T02:06:44.366Z,11.80
2019-04-22T02:07:34.142Z,11.77
2019-04-22T02:08:47.605Z,11.74
2019-04-22T02:09:56.064Z,11.62
2019-04-22T02:10:42.052Z,11.68
2019-04-22T02:11:48.809Z,11.58
2019-04-22T02:12:43.342Z,11.55
2019-04-22T02:13:46.021Z,11.53
2019-04-22T02:14:39.554Z,11.49
2019-04-22T02:15:45.905Z,11.44
2019-04-22T02:16:41.651Z,11.48
2019-04-22T02:18:01.283Z,11.43
2019-04-22T02:18:47.587Z,11.53
2019-04-22T02:20:35.923Z,11.37
2019-04-22T02:21:38.658Z,11.38
2019-04-22T02:22:55.205Z,11.34
2019-04-22T02:24:43.909Z,11.31
2019-04-22T02:25:40.990Z,11.23
2019-04-22T02:27:38.996Z,11.25
2019-04-22T02:29:43.930Z,11.16
2019-04-22T02:30:57.163Z,11.10
2019-04-22T02:33:21.831Z,11.08
2019-04-22T02:34:01.717Z,11.08
2019-04-22T02:35:58.300Z,10.98
2019-04-22T02:37:35.925Z,10.94
2019-04-22T02:39:41.118Z,10.97
2019-04-22T02:40:56.013Z,10.92
2019-04-22T02:41:57.691Z,10.95
2019-04-22T02:42:32.341Z,10.86
2019-04-22T02:43:51.475Z,10.94
2019-04-22T02:44:44.799Z,10.90
2019-04-22T02:45:50.339Z,10.87
2019-04-22T02:49:37.308Z,10.82
2019-04-22T02:50:43.442Z,10.82
2019-04-22T02:51:33.459Z,10.83
2019-04-22T02:52:43.537Z,10.77
2019-04-22T02:54:17.204Z,10.76
2019-04-22T02:55:49.014Z,10.76
2019-04-22T02:58:55.162Z,10.72
2019-04-22T02:59:39.794Z,10.75
2019-04-22T03:00:49.181Z,10.67
2019-04-22T03:01:42.447Z,10.76
2019-04-22T03:04:41.573Z,10.61
2019-04-22T03:05:47.061Z,10.58
2019-04-22T03:07:48.981Z,10.62
2019-04-22T03:09:40.349Z,10.57
2019-04-22T03:10:48.793Z,10.58
2019-04-22T03:11:50.434Z,10.57
2019-04-22T03:12:33.305Z,10.64
2019-04-22T03:13:52.598Z,10.61
2019-04-22T03:14:46.025Z,10.61
2019-04-22T03:15:42.529Z,10.51
2019-04-22T03:18:51.174Z,10.45
2019-04-22T03:20:42.634Z,10.45
2019-04-22T03:21:36.684Z,10.46
2019-04-22T03:22:36.571Z,10.45
2019-04-22T03:23:55.684Z,10.46
2019-04-22T03:27:39.527Z,10.39
2019-04-22T03:28:49.922Z,10.38
2019-04-22T03:29:58.712Z,10.41
2019-04-22T03:30:53.484Z,10.38
2019-04-22T03:33:51.843Z,10.28
2019-04-22T03:35:41.799Z,10.25
2019-04-22T03:37:49.211Z,10.21
2019-04-22T03:39:01.329Z,10.27
2019-04-22T03:39:55.255Z,10.30
2019-04-22T03:40:47.304Z,10.28
2019-04-22T03:42:52.176Z,10.20
2019-04-22T03:43:55.510Z,10.23
2019-04-22T03:44:39.174Z,10.15
2019-04-22T03:46:56.616Z,10.15
2019-04-22T03:47:43.197Z,10.20
2019-04-22T03:48:47.549Z,10.10
2019-04-22T03:49:49.066Z,10.17
2019-04-22T03:51:47.821Z,10.15
2019-04-22T03:52:39.041Z,10.21
2019-04-22T03:53:38.299Z,10.21
2019-04-22T03:55:38.775Z,10.18
2019-04-22T03:57:18.208Z,10.05
2019-04-22T03:57:49.080Z,10.17
2019-04-22T03:58:41.023Z,10.12
2019-04-22T03:59:42.133Z,10.07
2019-04-22T04:03:40.439Z,10.15
2019-04-22T04:05:57.704Z,10.20
2019-04-22T04:06:50.482Z,10.18
2019-04-22T04:07:40.651Z,10.12
2019-04-22T04:08:38.789Z,10.17
2019-04-22T04:10:46.122Z,10.17
2019-04-22T04:11:53.824Z,10.21
2019-04-22T04:13:39.447Z,10.23
2019-04-22T04:14:47.145Z,10.27
2019-04-22T04:15:34.711Z,10.27
2019-04-22T04:17:44.207Z,10.25
2019-04-22T04:18:49.822Z,10.25
2019-04-22T04:19:48.774Z,10.34
2019-04-22T04:21:42.016Z,10.39
2019-04-22T04:27:55.603Z,10.45
2019-04-22T04:30:02.588Z,10.48
2019-04-22T04:31:51.285Z,10.49
2019-04-22T04:32:51.386Z,10.42
2019-04-22T04:33:38.934Z,10.46
2019-04-22T04:35:48.050Z,10.51
2019-04-22T04:36:45.399Z,10.55
2019-04-22T04:37:44.615Z,10.48
2019-04-22T04:38:51.776Z,10.55
2019-04-22T04:39:49.180Z,10.57
2019-04-22T04:40:41.570Z,10.57
2019-04-22T04:41:43.259Z,10.58
2019-04-22T04:42:42.684Z,10.51
2019-04-22T04:43:50.499Z,10.53
2019-04-22T04:46:47.393Z,10.53
2019-04-22T04:49:00.464Z,10.64
2019-04-22T04:49:50.180Z,10.57
2019-04-22T04:50:53.345Z,10.61
2019-04-22T04:52:57.297Z,10.55
2019-04-22T04:53:33.775Z,10.55
2019-04-22T04:54:35.493Z,10.64
2019-04-22T04:56:51.403Z,10.65
2019-04-22T04:57:49.171Z,10.58
2019-04-22T04:59:50.803Z,10.62
2019-04-22T05:00:48.920Z,10.53
2019-04-22T05:01:46.891Z,10.67
2019-04-22T05:02:54.652Z,10.61
2019-04-22T05:03:55.312Z,10.65
2019-04-22T05:04:51.004Z,10.57
2019-04-22T05:05:39.628Z,10.62
2019-04-22T05:06:48.603Z,10.62
2019-04-22T05:09:32.428Z,10.61
2019-04-22T05:11:50.182Z,10.65
2019-04-22T05:13:50.127Z,10.62
2019-04-22T05:14:28.607Z,10.61
2019-04-22T05:15:40.070Z,10.61
2019-04-22T05:17:52.345Z,10.67
2019-04-22T05:18:39.547Z,10.62
2019-04-22T05:20:44.859Z,10.71
2019-04-22T05:23:37.214Z,10.77
2019-04-22T05:24:43.725Z,10.71
2019-04-22T05:25:28.357Z,10.72
2019-04-22T05:26:32.595Z,10.75
2019-04-22T05:28:33.511Z,10.82
2019-04-22T05:29:36.234Z,10.82
2019-04-22T05:31:37.243Z,10.84
2019-04-22T05:32:41.751Z,10.92
2019-04-22T05:33:33.103Z,10.84
2019-04-22T05:34:28.096Z,10.92
2019-04-22T05:36:28.531Z,10.92
2019-04-22T05:38:33.166Z,10.98
2019-04-22T05:39:28.503Z,11.02
2019-04-22T05:41:30.460Z,11.10
2019-04-22T05:42:23.397Z,11.01
2019-04-22T05:43:32.705Z,11.08
2019-04-22T05:44:29.418Z,11.15
2019-04-22T05:45:25.414Z,11.10
2019-04-22T05:46:29.869Z,11.16
2019-04-22T05:47:25.427Z,11.23
2019-04-22T05:48:33.103Z,11.20
2019-04-22T05:49:41.327Z,11.34
2019-04-22T05:50:24.549Z,11.25
2019-04-22T05:51:34.137Z,11.34
2019-04-22T05:52:24.934Z,11.35
2019-04-22T05:53:31.258Z,11.41
2019-04-22T05:54:27.782Z,11.43
2019-04-22T05:55:33.259Z,11.45
2019-04-22T05:56:34.779Z,11.44
2019-04-22T05:57:23.375Z,11.37
2019-04-22T05:58:31.591Z,11.43
2019-04-22T06:02:39.436Z,11.58
2019-04-22T06:03:32.146Z,11.67
2019-04-22T06:04:40.026Z,11.65
2019-04-22T06:05:32.751Z,11.80
2019-04-22T06:06:22.507Z,11.70
2019-04-22T06:07:26.430Z,11.86
2019-04-22T06:08:23.263Z,11.86
2019-04-22T06:09:30.651Z,11.89
2019-04-22T06:10:37.635Z,11.96
2019-04-22T06:11:29.426Z,11.96
2019-04-22T06:12:23.413Z,12.12
2019-04-22T06:13:23.784Z,12.12
2019-04-22T06:14:26.488Z,12.12
2019-04-22T06:15:24.344Z,12.18
2019-04-22T06:16:31.150Z,12.18
2019-04-22T06:17:35.180Z,12.21
2019-04-22T06:18:29.486Z,12.30
2019-04-22T06:19:26.440Z,12.25
2019-04-22T06:20:21.931Z,12.43
2019-04-22T06:21:26.630Z,12.47
2019-04-22T06:23:35.922Z,12.58
2019-04-22T06:25:39.499Z,12.61
2019-04-22T06:27:30.751Z,12.73
2019-04-22T06:28:34.877Z,12.86
2019-04-22T06:30:41.451Z,12.90
2019-04-22T06:31:38.664Z,12.88
2019-04-22T06:33:29.940Z,13.02
2019-04-22T06:34:34.178Z,13.16
2019-04-22T06:36:34.483Z,13.16
2019-04-22T06:37:27.975Z,13.26
2019-04-22T06:39:33.396Z,13.37
2019-04-22T06:40:27.419Z,13.33
2019-04-22T06:41:47.733Z,13.40
2019-04-22T06:42:28.273Z,13.52
2019-04-22T06:43:33.811Z,13.52
2019-04-22T06:45:23.495Z,13.65
2019-04-22T06:46:31.080Z,13.67
2019-04-22T06:47:39.905Z,13.71
2019-04-22T06:48:24.052Z,13.79
2019-04-22T06:50:34.030Z,13.85
2019-04-22T06:51:31.105Z,13.91
2019-04-22T06:52:40.658Z,14.00
2019-04-22T06:53:24.982Z,14.03
2019-04-22T06:54:29.572Z,14.16
2019-04-22T06:55:27.141Z,14.20
2019-04-22T06:56:22.293Z,14.25
2019-04-22T06:57:28.523Z,14.22
2019-04-22T06:58:21.784Z,14.40
2019-04-22T06:59:29.811Z,14.41
2019-04-22T07:00:24.491Z,14.38
2019-04-22T07:02:36.108Z,14.66
2019-04-22T07:04:22.257Z,14.70
2019-04-22T07:05:23.314Z,14.61
2019-04-22T07:06:32.951Z,14.74
2019-04-22T07:07:29.722Z,14.87
2019-04-22T07:09:33.521Z,15.02
2019-04-22T07:11:18.959Z,15.17
2019-04-22T07:12:24.742Z,15.17
2019-04-22T07:13:27.767Z,15.23
2019-04-22T07:14:22.725Z,15.32
2019-04-22T07:15:42.352Z,15.36
2019-04-22T07:16:30.216Z,15.45
2019-04-22T07:17:35.757Z,15.55
2019-04-22T07:19:38.335Z,15.54
2019-04-22T07:20:24.238Z,15.78
2019-04-22T07:21:25.711Z,15.63
2019-04-22T07:22:25.720Z,15.87
2019-04-22T07:23:41.925Z,15.91
2019-04-22T07:25:23.401Z,16.00
2019-04-22T07:26:23.096Z,16.13
2019-04-22T07:27:25.769Z,16.22
2019-04-22T07:28:20.517Z,16.31
2019-04-22T07:29:42.797Z,16.26
2019-04-22T07:31:20.871Z,16.47
2019-04-22T07:32:39.935Z,16.50
2019-04-22T07:33:31.288Z,16.49
2019-04-22T07:34:28.383Z,16.65
2019-04-22T07:35:30.459Z,16.66
2019-04-22T07:37:31.580Z,16.83
2019-04-22T07:38:26.698Z,16.84
2019-04-22T07:39:27.960Z,17.04
2019-04-22T07:40:29.062Z,17.07
2019-04-22T07:41:23.084Z,17.16
2019-04-22T07:42:24.527Z,17.17
2019-04-22T07:43:27.944Z,17.24
2019-04-22T07:44:24.181Z,17.35
2019-04-22T07:45:26.698Z,17.28
2019-04-22T07:46:22.977Z,17.46
2019-04-22T07:47:27.514Z,17.49
2019-04-22T07:49:29.282Z,17.63
2019-04-22T07:50:35.927Z,17.73
2019-04-22T07:51:21.559Z,17.80
2019-04-22T07:52:24.561Z,17.88
2019-04-22T07:53:22.588Z,17.93
2019-04-22T07:54:24.327Z,18.03
2019-04-22T07:55:25.538Z,18.02
2019-04-22T07:56:23.897Z,18.12
2019-04-22T07:57:28.403Z,18.15
2019-04-22T07:58:24.071Z,18.26
2019-04-22T07:59:26.874Z,18.34
2019-04-22T08:00:22.828Z,18.37
2019-04-22T08:01:20.466Z,18.43
2019-04-22T08:02:26.432Z,18.49
2019-04-22T08:03:32.077Z,18.58
2019-04-22T08:04:35.936Z,18.71
2019-04-22T08:05:24.791Z,18.78
2019-04-22T08:06:26.302Z,18.96
2019-04-22T08:07:27.081Z,18.94
2019-04-22T08:08:26.168Z,18.96
2019-04-22T08:11:37.568Z,19.27
2019-04-22T08:12:26.593Z,19.35
2019-04-22T08:13:24.777Z,19.42
2019-04-22T08:14:22.522Z,19.49
2019-04-22T08:15:20.086Z,19.53
2019-04-22T08:16:18.397Z,19.52
2019-04-22T08:17:45.027Z,19.67
2019-04-22T08:18:22.183Z,19.74
2019-04-22T08:19:20.361Z,19.78
2019-04-22T08:20:25.234Z,19.85
2019-04-22T08:21:19.729Z,19.90
2019-04-22T08:22:14.326Z,19.97
2019-04-22T08:23:24.511Z,20.11
2019-04-22T08:24:22.574Z,20.04
2019-04-22T08:25:24.996Z,20.19
2019-04-22T08:26:19.311Z,20.18
2019-04-22T08:27:20.883Z,20.33
2019-04-22T08:28:26.270Z,20.30
2019-04-22T08:29:26.606Z,20.36
2019-04-22T08:30:30.379Z,20.46
2019-04-22T08:31:20.591Z,20.50
2019-04-22T08:32:22.370Z,20.55
2019-04-22T08:33:22.196Z,20.58
2019-04-22T08:34:23.240Z,20.60
2019-04-22T08:35:29.748Z,20.64
2019-04-22T08:36:40.801Z,20.75
2019-04-22T08:38:31.279Z,20.89
2019-04-22T08:39:21.457Z,20.98
2019-04-22T08:40:28.835Z,21.15
2019-04-22T08:41:28.472Z,21.15
2019-04-22T08:42:27.741Z,21.26
2019-04-22T08:43:27.374Z,21.38
2019-04-22T08:44:37.726Z,21.37
2019-04-22T08:45:28.507Z,21.51
2019-04-22T08:46:23.508Z,21.51
2019-04-22T08:48:24.958Z,21.63
2019-04-22T08:49:16.489Z,21.81
2019-04-22T08:50:19.914Z,21.88
2019-04-22T08:51:21.003Z,21.89
2019-04-22T08:52:26.075Z,21.99
2019-04-22T08:53:28.724Z,22.10
2019-04-22T08:54:18.278Z,22.18
2019-04-22T08:55:26.338Z,22.18
2019-04-22T08:56:30.953Z,22.36
2019-04-22T08:57:32.996Z,22.38
2019-04-22T08:58:31.240Z,22.41
2019-04-22T08:59:15.015Z,22.51
2019-04-22T09:00:21.567Z,22.56
2019-04-22T09:01:25.264Z,22.73
2019-04-22T09:02:25.781Z,22.65
2019-04-22T09:03:16.017Z,22.76
2019-04-22T09:04:11.728Z,22.95
2019-04-22T09:05:38.955Z,22.95
2019-04-22T09:06:34.110Z,23.06
2019-04-22T09:07:28.926Z,23.07
2019-04-22T09:08:23.848Z,23.16
2019-04-22T09:09:25.025Z,23.28
2019-04-22T09:10:17.128Z,23.23
2019-04-22T09:11:21.660Z,23.40
2019-04-22T09:12:33.160Z,23.45
2019-04-22T09:13:20.588Z,23.39
2019-04-22T09:14:24.649Z,23.52
2019-04-22T09:15:18.515Z,23.58
2019-04-22T09:16:28.232Z,23.71
2019-04-22T09:17:20.064Z,23.66
2019-04-22T09:18:21.658Z,23.86
2019-04-22T09:19:18.073Z,23.89
2019-04-22T09:20:21.313Z,23.94
2019-04-22T09:21:32.681Z,24.04
2019-04-22T09:22:17.143Z,24.13
2019-04-22T09:23:23.544Z,24.28
2019-04-22T09:24:19.722Z,24.28
2019-04-22T09:25:16.927Z,24.34
2019-04-22T09:26:22.879Z,24.51
2019-04-22T09:27:26.644Z,24.59
2019-04-22T09:28:23.101Z,24.63
2019-04-22T09:29:20.823Z,24.71
2019-04-22T09:30:21.688Z,24.79
2019-04-22T09:31:19.624Z,24.96
2019-04-22T09:32:19.824Z,24.94
2019-04-22T09:33:20.642Z,25.01
2019-04-22T09:34:21.009Z,25.11
2019-04-22T09:35:21.487Z,25.21
2019-04-22T09:36:22.652Z,25.31
2019-04-22T09:37:28.948Z,25.43
2019-04-22T09:39:28.278Z,25.51
2019-04-22T09:40:22.208Z,25.62
2019-04-22T09:41:24.920Z,25.71
2019-04-22T09:42:17.336Z,25.68
2019-04-22T09:43:17.154Z,25.76
2019-04-22T09:44:16.345Z,25.80
2019-04-22T09:45:15.250Z,25.92
2019-04-22T09:46:14.890Z,25.95
2019-04-22T09:47:19.646Z,26.04
2019-04-22T09:48:26.707Z,26.19
2019-04-22T09:49:23.479Z,26.24
2019-04-22T09:50:27.501Z,26.30
2019-04-22T09:51:23.600Z,26.37
2019-04-22T09:52:15.126Z,26.44
2019-04-22T09:53:14.830Z,26.46
2019-04-22T09:54:26.159Z,26.59
2019-04-22T09:55:16.717Z,26.70
2019-04-22T09:56:17.545Z,26.82
2019-04-22T09:57:20.178Z,26.86
2019-04-22T09:58:16.206Z,26.97
2019-04-22T09:59:24.621Z,27.05
2019-04-22T10:00:17.013Z,27.18
2019-04-22T10:01:22.729Z,27.18
2019-04-22T10:02:34.339Z,27.15
2019-04-22T10:03:36.757Z,27.30
2019-04-22T10:04:14.309Z,27.40
2019-04-22T10:05:25.245Z,27.53
2019-04-22T10:06:23.151Z,27.45
2019-04-22T10:07:24.133Z,27.67
2019-04-22T10:08:24.655Z,27.68
2019-04-22T10:11:21.447Z,27.97
2019-04-22T10:12:19.358Z,27.95
2019-04-22T10:13:19.057Z,28.10
2019-04-22T10:14:19.078Z,28.22
2019-04-22T10:15:13.889Z,28.23
2019-04-22T10:16:20.208Z,28.27
2019-04-22T10:17:12.342Z,28.35
2019-04-22T10:18:20.454Z,28.31
2019-04-22T10:19:18.664Z,28.41
2019-04-22T10:20:24.839Z,28.53
2019-04-22T10:21:19.002Z,28.53
2019-04-22T10:22:25.342Z,28.59
2019-04-22T10:23:20.091Z,28.72
2019-04-22T10:24:16.719Z,28.74
2019-04-22T10:25:16.703Z,28.83
2019-04-22T10:26:26.494Z,28.93
2019-04-22T10:27:16.221Z,28.92
2019-04-22T10:28:15.334Z,29.06
2019-04-22T10:29:20.695Z,29.06
2019-04-22T10:30:21.800Z,29.06
2019-04-22T10:31:21.884Z,29.20
2019-04-22T10:32:14.755Z,29.21
2019-04-22T10:33:11.767Z,29.20
2019-04-22T10:34:05.363Z,29.16
2019-04-22T10:34:58.757Z,29.30
2019-04-22T10:35:51.838Z,29.25
2019-04-22T10:36:56.882Z,29.24
2019-04-22T10:37:50.489Z,29.34
2019-04-22T10:38:50.714Z,29.46
2019-04-22T10:39:56.595Z,29.53
2019-04-22T10:40:50.656Z,29.64
2019-04-22T10:41:50.633Z,29.71
2019-04-22T10:42:51.457Z,29.77
2019-04-22T10:43:50.924Z,29.84
2019-04-22T10:44:51.758Z,29.92
2019-04-22T10:45:50.491Z,29.98
2019-04-22T11:09:08.528Z,31.07
2019-04-22T11:26:34.638Z,32.90
2019-04-22T11:27:34.975Z,33.04
2019-04-22T11:28:34.030Z,33.08
2019-04-22T11:29:35.321Z,33.12
2019-04-22T11:30:34.421Z,33.16
2019-04-22T11:31:34.512Z,33.17
2019-04-22T11:32:33.837Z,33.31
2019-04-22T11:33:34.534Z,33.47
2019-04-22T11:34:35.356Z,33.53
2019-04-22T11:35:34.033Z,33.67
2019-04-22T11:36:34.539Z,33.73
2019-04-22T11:37:34.786Z,33.92
2019-04-22T11:38:37.742Z,34.22
2019-04-22T11:39:36.434Z,34.50
2019-04-22T11:40:38.429Z,34.83
2019-04-22T11:41:33.872Z,35.16
2019-04-22T11:42:34.346Z,35.66
2019-04-22T11:43:34.496Z,35.90
2019-04-22T11:44:33.452Z,36.36
2019-04-22T11:45:33.397Z,36.70
2019-04-22T11:46:33.611Z,36.91
2019-04-22T11:47:33.328Z,37.29
2019-04-22T11:48:33.982Z,37.61
2019-04-22T11:49:34.170Z,37.91
2019-04-22T11:50:33.582Z,38.13
2019-04-22T11:51:33.828Z,38.25
2019-04-22T11:52:33.163Z,38.39
2019-04-22T11:53:34.424Z,38.51
2019-04-22T11:54:33.094Z,38.58
2019-04-22T11:55:33.063Z,38.68
2019-04-22T11:56:33.030Z,38.96
2019-04-22T11:57:33.053Z,39.00
2019-04-22T11:58:33.267Z,39.14
2019-04-22T11:59:33.121Z,39.38
2019-04-22T12:00:32.931Z,39.52
2019-04-22T12:01:33.031Z,39.56
2019-04-22T12:02:33.146Z,39.54
2019-04-22T12:03:33.813Z,39.46
2019-04-22T12:04:33.885Z,39.41
2019-04-22T12:05:34.212Z,39.42
2019-04-22T12:06:33.740Z,39.45
2019-04-22T12:07:34.823Z,39.60
2019-04-22T12:08:33.899Z,39.66
2019-04-22T12:09:33.391Z,39.73
2019-04-22T12:10:38.843Z,39.76
2019-04-22T12:11:32.539Z,39.79
2019-04-22T12:12:32.506Z,39.73
2019-04-22T12:13:33.710Z,39.82
2019-04-22T12:14:34.022Z,39.79
2019-04-22T12:15:33.006Z,39.75
2019-04-22T12:16:32.376Z,39.70
2019-04-22T12:17:32.347Z,39.63
2019-04-22T12:18:33.339Z,39.56
2019-04-22T12:19:33.473Z,39.63
2019-04-22T12:20:33.013Z,39.61
2019-04-22T12:21:32.995Z,39.59
2019-04-22T12:22:32.188Z,39.54
2019-04-22T12:23:32.717Z,39.54
2019-04-22T12:24:32.127Z,39.59
2019-04-22T12:25:43.297Z,39.60
2019-04-22T12:26:32.527Z,39.59
2019-04-22T12:27:32.678Z,39.42
2019-04-22T12:28:32.979Z,39.32
2019-04-22T12:29:33.206Z,39.22
2019-04-22T12:30:33.279Z,39.03
2019-04-22T12:31:33.455Z,38.63
2019-04-22T12:32:31.863Z,38.39
2019-04-22T12:33:31.829Z,37.95
2019-04-22T12:34:33.260Z,37.53
2019-04-22T12:35:32.716Z,36.94
2019-04-22T12:36:32.759Z,36.33
2019-04-22T12:38:31.665Z,35.42
2019-04-22T12:39:31.732Z,35.05
2019-04-22T12:40:41.207Z,34.55
2019-04-22T12:41:31.564Z,34.09
2019-04-22T12:42:31.531Z,33.77
2019-04-22T12:43:31.828Z,33.47
2019-04-22T12:44:32.744Z,33.17
2019-04-22T12:45:31.979Z,33.01
2019-04-22T12:46:32.363Z,32.85
2019-04-22T12:47:33.585Z,32.73
2019-04-22T12:48:32.807Z,32.64
2019-04-22T12:49:32.217Z,32.48
2019-04-22T12:50:34.856Z,32.42
2019-04-22T12:51:31.415Z,32.23
2019-04-22T12:53:31.933Z,32.01
2019-04-22T12:54:31.236Z,31.87
2019-04-22T12:55:32.386Z,31.69
2019-04-22T12:56:31.053Z,31.64
2019-04-22T12:57:32.579Z,31.48
2019-04-22T12:58:31.714Z,31.35
2019-04-22T12:59:31.818Z,31.30
2019-04-22T13:00:32.255Z,31.23
2019-04-22T13:01:30.923Z,31.25
2019-04-22T13:02:31.286Z,31.17
2019-04-22T13:04:32.206Z,31.02
2019-04-22T13:05:31.350Z,30.92
2019-04-22T13:06:31.958Z,30.70
2019-04-22T13:07:31.550Z,30.71
2019-04-22T13:08:31.719Z,30.63
2019-04-22T13:09:31.623Z,30.63
2019-04-22T13:10:41.580Z,30.69
2019-04-22T13:11:34.177Z,30.62
2019-04-22T13:12:31.097Z,30.56
2019-04-22T13:13:31.365Z,30.44
2019-04-22T13:14:30.723Z,30.29
2019-04-22T13:15:30.874Z,30.33
2019-04-22T13:16:31.293Z,30.23
2019-04-22T13:17:31.244Z,30.21
2019-04-22T13:18:38.118Z,30.13
2019-04-22T13:19:30.324Z,30.16
2019-04-22T13:20:30.498Z,30.02
2019-04-22T13:21:31.100Z,29.94
2019-04-22T13:22:30.614Z,30.01
2019-04-22T13:24:19.858Z,30.03
2019-04-22T13:25:17.688Z,30.03
2019-04-22T13:26:18.874Z,29.98
2019-04-22T13:28:18.899Z,29.94
2019-04-22T13:29:17.301Z,29.84
2019-04-22T13:30:18.589Z,29.76
2019-04-22T13:31:20.641Z,29.71
2019-04-22T13:32:18.341Z,29.77
2019-04-22T13:33:17.814Z,29.65
2019-04-22T13:36:19.179Z,29.62
2019-04-22T13:37:17.047Z,29.52
2019-04-22T13:38:17.474Z,29.50
2019-04-22T13:39:16.998Z,29.47
2019-04-22T13:40:16.995Z,29.39
2019-04-22T13:41:28.945Z,29.22
2019-04-22T13:42:20.367Z,29.16
2019-04-22T13:43:16.863Z,29.25
2019-04-22T13:44:16.800Z,29.25
2019-04-22T13:46:16.857Z,29.28
2019-04-22T13:47:34.757Z,29.30
2019-04-22T13:51:50.655Z,29.32
2019-04-22T13:52:51.133Z,29.25
2019-04-22T13:54:14.036Z,29.24
2019-04-22T13:54:48.617Z,29.22
2019-04-22T13:56:40.336Z,29.02
2019-04-22T13:57:32.834Z,29.05
2019-04-22T13:58:31.460Z,29.06
2019-04-22T13:59:23.056Z,29.10
2019-04-22T14:01:16.547Z,29.00
2019-04-22T14:02:16.898Z,28.97
2019-04-22T14:03:16.262Z,28.97
2019-04-22T14:04:16.469Z,28.96
2019-04-22T14:07:16.632Z,29.12
2019-04-22T14:08:16.582Z,29.09
2019-04-22T14:09:18.212Z,29.06
2019-04-22T14:11:28.711Z,29.09
2019-04-22T14:12:17.795Z,29.03
2019-04-22T14:13:16.162Z,29.13
2019-04-22T14:15:15.941Z,29.18
2019-04-22T14:16:15.597Z,29.20
2019-04-22T14:17:16.754Z,29.16
2019-04-22T14:18:16.820Z,29.22
2019-04-22T14:19:16.060Z,29.32
2019-04-22T14:20:15.415Z,29.22
2019-04-22T14:21:16.727Z,29.27
2019-04-22T14:22:15.970Z,29.27
2019-04-22T14:23:15.989Z,29.21
2019-04-22T14:25:16.568Z,29.12
2019-04-22T14:26:15.482Z,29.16
2019-04-22T14:27:29.057Z,29.16
2019-04-22T14:28:17.954Z,29.21
2019-04-22T14:29:15.680Z,29.07
2019-04-22T14:30:15.049Z,28.84
2019-04-22T14:31:15.005Z,28.78
2019-04-22T14:32:21.024Z,28.70
2019-04-22T14:33:16.119Z,28.70
2019-04-22T14:34:16.583Z,28.71
2019-04-22T14:35:15.349Z,28.78
2019-04-22T14:39:02.131Z,28.96
2019-04-22T14:41:02.529Z,29.07
2019-04-22T14:42:27.123Z,29.12
2019-04-22T14:45:05.043Z,29.05
2019-04-22T14:46:32.031Z,29.02
2019-04-22T14:47:25.988Z,28.90
2019-04-22T14:49:23.979Z,29.02
2019-04-22T14:50:23.704Z,28.82
2019-04-22T14:51:23.625Z,28.84
2019-04-22T14:53:02.396Z,28.80
2019-04-22T14:53:21.404Z,28.78
2019-04-22T14:54:18.202Z,28.56
2019-04-22T14:56:02.322Z,28.67
2019-04-22T14:58:01.423Z,28.53
2019-04-22T14:59:02.909Z,28.55
2019-04-22T15:04:01.199Z,28.57
2019-04-22T15:06:02.188Z,28.53
2019-04-22T15:13:00.862Z,28.55
2019-04-22T15:15:01.619Z,28.55
2019-04-22T15:17:00.863Z,28.52
2019-04-22T15:18:49.444Z,28.49
2019-04-22T15:19:48.018Z,28.38
2019-04-22T15:21:48.152Z,28.25
2019-04-22T15:24:47.830Z,28.12
2019-04-22T15:26:48.460Z,28.01
2019-04-22T15:28:49.277Z,27.94
2019-04-22T15:29:47.642Z,27.88
2019-04-22T15:31:47.567Z,27.83
2019-04-22T15:32:47.533Z,27.79
2019-04-22T15:34:48.883Z,27.82
2019-04-22T15:36:48.487Z,27.86
2019-04-22T15:37:48.752Z,27.86
2019-04-22T15:39:47.882Z,27.79
2019-04-22T15:40:47.230Z,27.83
2019-04-22T15:44:48.060Z,27.75
2019-04-22T15:46:47.126Z,27.58
2019-04-22T15:50:47.045Z,27.58
2019-04-22T15:52:50.044Z,27.40
2019-04-22T15:53:47.580Z,27.44
2019-04-22T15:54:50.257Z,27.43
2019-04-22T15:55:47.132Z,27.53
2019-04-22T15:56:46.706Z,27.41
2019-04-22T15:58:47.870Z,27.45
2019-04-22T16:00:02.326Z,27.47
2019-04-22T16:00:57.688Z,27.38
2019-04-22T16:01:46.792Z,27.40
2019-04-22T16:03:47.074Z,27.44
2019-04-22T16:10:39.743Z,27.20
2019-04-22T16:11:38.326Z,27.18
2019-04-22T16:13:40.011Z,27.22
2019-04-22T16:14:43.777Z,27.19
2019-04-22T16:15:38.394Z,27.33
2019-04-22T16:16:38.889Z,27.28
2019-04-22T16:17:38.092Z,27.29
2019-04-22T16:18:38.141Z,27.38